createdAt,value
2022-09-26T00:01:04.922Z,24.20
2022-09-26T00:03:32.755Z,24.10
2022-09-26T00:06:24.864Z,24.20
2022-09-26T00:09:17.842Z,24.20
2022-09-26T00:12:09.971Z,24.20
2022-09-26T00:14:49.941Z,24.30
2022-09-26T00:17:29.798Z,24.30
2022-09-26T00:19:57.436Z,24.30
2022-09-26T00:22:26.259Z,24.30
2022-09-26T00:24:54.942Z,24.30
2022-09-26T00:27:47.126Z,24.40
2022-09-26T00:30:39.530Z,24.50
2022-09-26T00:33:07.633Z,24.50
2022-09-26T00:35:48.470Z,24.50
2022-09-26T00:38:29.204Z,24.60
2022-09-26T00:40:56.973Z,24.60
2022-09-26T00:43:37.892Z,24.60
2022-09-26T00:46:37.432Z,24.60
2022-09-26T00:49:17.302Z,24.70
2022-09-26T00:51:57.152Z,24.70
2022-09-26T00:54:41.410Z,24.70
2022-09-26T00:57:21.301Z,24.70
2022-09-26T01:00:13.783Z,24.70
2022-09-26T01:02:56.420Z,24.70
2022-09-26T01:05:26.176Z,24.80
2022-09-26T01:08:06.509Z,24.80
2022-09-26T01:10:50.443Z,24.90
2022-09-26T01:13:31.857Z,24.90
2022-09-26T01:16:25.407Z,25.00
2022-09-26T01:19:05.486Z,25.00
2022-09-26T01:21:54.324Z,25.00
2022-09-26T01:24:34.178Z,25.10
2022-09-26T01:27:26.275Z,25.20
2022-09-26T01:30:18.231Z,25.20
2022-09-26T01:33:10.599Z,25.20
2022-09-26T01:36:02.763Z,25.30
2022-09-26T01:38:55.727Z,25.30
2022-09-26T01:41:44.444Z,25.40
2022-09-26T01:44:36.527Z,25.50
2022-09-26T01:47:28.679Z,25.50
2022-09-26T01:50:21.616Z,25.60
2022-09-26T01:53:13.201Z,25.60
2022-09-26T01:55:55.400Z,25.70
2022-09-26T01:58:35.937Z,25.80
2022-09-26T02:01:28.135Z,25.80
2022-09-26T02:04:09.988Z,25.90
2022-09-26T02:06:50.560Z,26.00
2022-09-26T02:09:20.672Z,26.10
2022-09-26T02:12:12.808Z,26.10
2022-09-26T02:14:54.284Z,26.20
2022-09-26T02:17:23.825Z,26.30
2022-09-26T02:19:57.286Z,26.30
2022-09-26T02:22:37.219Z,26.40
2022-09-26T02:25:19.448Z,26.50
2022-09-26T02:28:11.560Z,26.50
2022-09-26T02:30:51.444Z,26.50
2022-09-26T02:33:34.521Z,26.50
2022-09-26T02:36:03.862Z,26.60
2022-09-26T02:38:43.793Z,26.70
2022-09-26T02:41:34.416Z,26.80
2022-09-26T02:44:26.536Z,26.80
2022-09-26T02:47:06.474Z,26.90
2022-09-26T02:49:46.476Z,27.00
2022-09-26T02:52:28.006Z,27.10
2022-09-26T02:55:08.762Z,27.20
2022-09-26T02:57:58.954Z,27.30
2022-09-26T03:00:51.363Z,27.40
2022-09-26T03:03:34.844Z,27.50
2022-09-26T03:06:15.998Z,27.50
2022-09-26T03:08:58.680Z,27.50
2022-09-26T03:11:50.875Z,27.50
2022-09-26T03:14:42.990Z,27.60
2022-09-26T03:17:35.156Z,27.70
2022-09-26T03:20:10.157Z,27.70
2022-09-26T03:23:04.151Z,27.70
2022-09-26T03:26:26.027Z,27.80
2022-09-26T03:29:06.058Z,27.80
2022-09-26T03:32:01.088Z,27.90
2022-09-26T03:34:38.106Z,27.90
2022-09-26T03:37:08.125Z,27.90
2022-09-26T03:42:38.891Z,28.00
2022-09-26T03:45:08.690Z,28.00
2022-09-26T03:47:37.454Z,28.00
2022-09-26T03:50:06.079Z,28.10
2022-09-26T03:52:33.913Z,28.10
2022-09-26T03:55:01.644Z,28.20
2022-09-26T03:57:29.367Z,28.20
2022-09-26T03:59:57.180Z,28.20
2022-09-26T04:02:24.950Z,28.20
2022-09-26T04:04:52.633Z,28.20
2022-09-26T04:07:20.342Z,28.20
2022-09-26T04:09:47.997Z,28.20
2022-09-26T04:12:15.691Z,28.30
2022-09-26T04:14:46.466Z,28.40
2022-09-26T04:17:14.191Z,28.50
2022-09-26T04:19:41.858Z,28.60
2022-09-26T04:22:09.534Z,28.80
2022-09-26T04:24:46.829Z,28.80
2022-09-26T04:27:17.987Z,28.90
2022-09-26T04:29:45.834Z,28.90
2022-09-26T04:32:13.502Z,29.00
2022-09-26T04:34:41.368Z,29.00
2022-09-26T04:37:10.488Z,29.00
2022-09-26T04:39:38.231Z,29.10
2022-09-26T04:42:05.957Z,29.10
2022-09-26T04:44:33.614Z,29.20
2022-09-26T04:47:01.340Z,29.30
2022-09-26T04:49:30.218Z,29.20
2022-09-26T04:51:57.790Z,29.20
2022-09-26T04:54:27.139Z,29.10
2022-09-26T04:56:54.791Z,29.10
2022-09-26T04:59:22.495Z,29.10
2022-09-26T05:01:50.263Z,29.10
2022-09-26T05:04:32.972Z,29.10
2022-09-26T05:07:00.608Z,29.00
2022-09-26T05:09:30.706Z,29.10
2022-09-26T05:12:00.631Z,29.10
2022-09-26T05:14:28.495Z,29.20
2022-09-26T05:16:56.112Z,29.20
2022-09-26T05:19:23.767Z,29.30
2022-09-26T05:21:51.582Z,29.40
2022-09-26T05:24:32.560Z,29.40
2022-09-26T05:27:00.493Z,29.50
2022-09-26T05:29:28.136Z,29.60
2022-09-26T05:31:56.068Z,29.60
2022-09-26T05:34:27.524Z,29.70
2022-09-26T05:36:57.141Z,29.70
2022-09-26T05:39:41.650Z,29.70
2022-09-26T05:42:10.414Z,29.70
2022-09-26T05:44:38.668Z,29.70
2022-09-26T05:47:06.377Z,29.70
2022-09-26T05:49:34.414Z,29.70
2022-09-26T05:52:03.691Z,29.70
2022-09-26T05:54:32.509Z,29.70
2022-09-26T05:57:00.133Z,29.80
2022-09-26T05:59:27.790Z,29.90
2022-09-26T06:01:56.276Z,29.90
2022-09-26T06:04:24.022Z,29.90
2022-09-26T06:07:02.219Z,30.00
2022-09-26T06:09:47.628Z,30.10
2022-09-26T06:12:27.177Z,30.20
2022-09-26T06:14:56.896Z,30.30
2022-09-26T06:17:25.237Z,30.30
2022-09-26T06:20:06.240Z,30.40
2022-09-26T06:22:41.220Z,30.50
2022-09-26T06:25:12.836Z,30.50
2022-09-26T06:27:40.841Z,30.50
2022-09-26T06:30:09.298Z,30.50
2022-09-26T06:32:39.503Z,30.60
2022-09-26T06:35:07.490Z,30.70
2022-09-26T06:37:35.215Z,30.70
2022-09-26T06:40:02.975Z,30.70
2022-09-26T06:42:38.419Z,30.70
2022-09-26T06:45:09.921Z,30.70
2022-09-26T06:47:37.682Z,30.80
2022-09-26T06:50:05.672Z,30.80
2022-09-26T06:52:35.147Z,30.80
2022-09-26T06:55:03.963Z,30.80
2022-09-26T06:57:42.037Z,30.80
2022-09-26T07:00:14.774Z,30.80
2022-09-26T07:02:54.864Z,30.70
2022-09-26T07:05:23.372Z,30.70
2022-09-26T07:07:51.238Z,30.60
2022-09-26T07:10:19.262Z,30.60
2022-09-26T07:12:47.528Z,30.60
2022-09-26T07:15:16.775Z,30.70
2022-09-26T07:17:45.502Z,30.70
2022-09-26T07:20:16.984Z,30.80
2022-09-26T07:22:44.663Z,30.90
2022-09-26T07:25:12.705Z,30.90
2022-09-26T07:27:40.848Z,30.80
2022-09-26T07:30:09.526Z,30.80
2022-09-26T07:32:37.283Z,30.80
2022-09-26T07:35:06.555Z,30.90
2022-09-26T07:37:34.234Z,30.90
2022-09-26T07:40:06.295Z,30.90
2022-09-26T07:42:34.007Z,30.80
2022-09-26T07:45:22.313Z,30.90
2022-09-26T07:48:01.848Z,30.90
2022-09-26T07:50:29.486Z,31.00
2022-09-26T07:52:57.095Z,31.00
2022-09-26T07:55:28.451Z,30.90
2022-09-26T07:57:56.708Z,30.90
2022-09-26T08:00:25.105Z,30.80
2022-09-26T08:02:53.138Z,30.80
2022-09-26T08:05:20.840Z,30.80
2022-09-26T08:07:49.226Z,30.70
2022-09-26T08:10:20.370Z,30.70
2022-09-26T08:12:49.369Z,30.60
2022-09-26T08:15:17.235Z,30.60
2022-09-26T08:17:44.991Z,30.60
2022-09-26T08:20:13.124Z,30.60
2022-09-26T08:22:41.123Z,30.70
2022-09-26T08:25:09.207Z,30.80
2022-09-26T08:27:36.912Z,30.90
2022-09-26T08:30:04.832Z,30.90
2022-09-26T08:32:33.179Z,30.90
2022-09-26T08:35:01.153Z,30.80
2022-09-26T08:37:29.238Z,30.60
2022-09-26T08:39:56.904Z,30.50
2022-09-26T08:42:36.895Z,30.40
2022-09-26T08:45:33.317Z,30.20
2022-09-26T08:48:05.275Z,30.00
2022-09-26T08:50:47.047Z,29.80
2022-09-26T08:53:34.283Z,29.60
2022-09-26T08:56:05.335Z,29.40
2022-09-26T08:58:41.116Z,29.30
2022-09-26T09:01:13.523Z,29.20
2022-09-26T09:03:52.165Z,29.20
2022-09-26T09:06:19.929Z,29.00
2022-09-26T09:08:53.029Z,28.90
2022-09-26T09:11:40.267Z,28.80
2022-09-26T09:14:24.996Z,28.70
2022-09-26T09:17:15.137Z,28.60
2022-09-26T09:19:55.035Z,28.50
2022-09-26T09:22:39.063Z,28.40
2022-09-26T09:25:18.997Z,28.30
2022-09-26T09:27:54.890Z,28.20
2022-09-26T09:30:30.486Z,28.10
2022-09-26T09:33:02.241Z,28.00
2022-09-26T09:35:42.274Z,27.90
2022-09-26T09:38:13.438Z,27.80
2022-09-26T09:40:43.568Z,27.70
2022-09-26T09:43:27.365Z,27.70
2022-09-26T09:45:58.370Z,27.70
2022-09-26T09:48:27.949Z,27.60
2022-09-26T09:51:15.501Z,27.60
2022-09-26T09:53:53.454Z,27.50
2022-09-26T09:56:41.453Z,27.50
2022-09-26T09:59:21.416Z,27.50
2022-09-26T10:01:54.162Z,27.40
2022-09-26T10:04:35.370Z,27.40
2022-09-26T10:07:04.373Z,27.30
2022-09-26T10:09:42.444Z,27.30
2022-09-26T10:12:15.736Z,27.20
2022-09-26T10:14:55.592Z,27.20
2022-09-26T10:17:24.058Z,27.10
2022-09-26T10:19:52.880Z,27.10
2022-09-26T10:22:26.479Z,27.00
2022-09-26T10:25:00.606Z,26.90
2022-09-26T10:27:47.863Z,26.90
2022-09-26T10:30:26.175Z,26.90
2022-09-26T10:32:57.409Z,26.90
2022-09-26T10:35:30.978Z,26.80
2022-09-26T10:38:18.947Z,26.80
2022-09-26T10:40:59.751Z,26.90
2022-09-26T10:43:38.395Z,26.90
2022-09-26T10:49:03.288Z,26.90
2022-09-26T10:51:43.243Z,26.90
2022-09-26T10:54:13.831Z,26.90
2022-09-26T10:59:37.830Z,26.90
2022-09-26T11:02:05.777Z,26.80
2022-09-26T11:04:47.744Z,26.80
2022-09-26T11:07:28.198Z,26.70
2022-09-26T11:10:00.348Z,26.70
2022-09-26T11:12:30.411Z,26.60
2022-09-26T11:15:05.479Z,26.60
2022-09-26T11:17:45.431Z,26.50
2022-09-26T11:20:17.976Z,26.50
2022-09-26T11:22:50.008Z,26.50
2022-09-26T11:25:40.154Z,26.50
2022-09-26T11:28:13.384Z,26.50
2022-09-26T11:30:49.750Z,26.50
2022-09-26T11:33:20.539Z,26.50
2022-09-26T11:36:00.424Z,26.50
2022-09-26T11:38:39.482Z,26.60
2022-09-26T11:41:36.786Z,26.60
2022-09-26T11:44:27.039Z,26.70
2022-09-26T11:47:14.337Z,26.60
2022-09-26T11:50:01.881Z,26.60
2022-09-26T11:52:44.388Z,26.50
2022-09-26T11:55:24.867Z,26.50
2022-09-26T11:58:03.470Z,26.50
2022-09-26T12:00:44.746Z,26.40
2022-09-26T12:03:33.692Z,26.50
2022-09-26T12:06:13.799Z,26.50
2022-09-26T12:08:53.861Z,26.50
2022-09-26T12:11:42.882Z,26.50
2022-09-26T12:14:23.950Z,26.60
2022-09-26T12:16:58.854Z,26.60
2022-09-26T12:19:32.962Z,26.60
2022-09-26T12:22:25.080Z,26.60
2022-09-26T12:25:06.532Z,26.60
2022-09-26T12:27:38.300Z,26.60
2022-09-26T12:30:29.421Z,26.70
2022-09-26T12:33:09.330Z,26.70
2022-09-26T12:35:45.359Z,26.70
2022-09-26T12:38:33.221Z,26.70
2022-09-26T12:41:14.730Z,26.70
2022-09-26T12:43:57.563Z,26.70
2022-09-26T12:46:37.614Z,26.70
2022-09-26T12:49:25.732Z,26.70
2022-09-26T12:51:57.025Z,26.70
2022-09-26T12:54:37.536Z,26.70
2022-09-26T12:57:18.213Z,26.70
2022-09-26T12:59:58.539Z,26.70
2022-09-26T13:02:39.946Z,26.70
2022-09-26T13:05:28.167Z,26.70
2022-09-26T13:08:11.101Z,26.70
2022-09-26T13:11:01.319Z,26.70
2022-09-26T13:13:41.199Z,26.60
2022-09-26T13:16:28.747Z,26.60
2022-09-26T13:19:02.034Z,26.60
2022-09-26T13:21:43.260Z,26.60
2022-09-26T13:24:19.311Z,26.50
2022-09-26T13:26:52.662Z,26.50
2022-09-26T13:29:33.988Z,26.40
2022-09-26T13:32:16.230Z,26.40
2022-09-26T13:34:50.848Z,26.40
2022-09-26T13:37:29.247Z,26.40
2022-09-26T13:40:04.821Z,26.30
2022-09-26T13:42:37.163Z,26.30
2022-09-26T13:45:17.018Z,26.30
2022-09-26T13:47:55.443Z,26.20
2022-09-26T13:50:36.251Z,26.20
2022-09-26T13:53:13.720Z,26.20
2022-09-26T13:55:43.604Z,26.10
2022-09-26T13:58:22.043Z,26.10
2022-09-26T14:00:53.550Z,26.10
2022-09-26T14:03:37.440Z,26.00
2022-09-26T14:06:12.620Z,26.00
2022-09-26T14:09:10.882Z,26.00
2022-09-26T14:11:52.944Z,26.00
2022-09-26T14:14:24.352Z,25.90
2022-09-26T14:16:57.146Z,25.90
2022-09-26T14:19:45.228Z,25.90
2022-09-26T14:22:32.541Z,25.90
2022-09-26T14:25:00.252Z,25.80
2022-09-26T14:27:41.968Z,25.80
2022-09-26T14:30:22.920Z,25.80
2022-09-26T14:32:52.111Z,25.80
2022-09-26T14:35:26.515Z,25.80
2022-09-26T14:38:02.616Z,25.80
2022-09-26T14:40:38.301Z,25.70
2022-09-26T14:43:16.196Z,25.70
2022-09-26T14:45:52.600Z,25.80
2022-09-26T14:48:40.351Z,25.70
2022-09-26T14:51:26.748Z,25.70
2022-09-26T14:54:00.790Z,25.70
2022-09-26T14:56:38.754Z,25.70
2022-09-26T14:59:26.894Z,25.70
2022-09-26T15:02:15.585Z,25.70
2022-09-26T15:04:44.381Z,25.70
2022-09-26T15:07:15.573Z,25.70
2022-09-26T15:09:45.003Z,25.60
2022-09-26T15:12:23.479Z,25.60
2022-09-26T15:14:54.396Z,25.60
2022-09-26T15:17:28.289Z,25.60
2022-09-26T15:19:59.212Z,25.60
2022-09-26T15:22:30.324Z,25.60
2022-09-26T15:25:17.640Z,25.60
2022-09-26T15:27:46.554Z,25.60
2022-09-26T15:30:19.929Z,25.60
2022-09-26T15:32:50.799Z,25.60
2022-09-26T15:35:19.506Z,25.60
2022-09-26T15:37:47.627Z,25.60
2022-09-26T15:40:26.723Z,25.50
2022-09-26T15:43:14.118Z,25.50
2022-09-26T15:46:08.874Z,25.50
2022-09-26T15:48:44.032Z,25.50
2022-09-26T15:51:16.585Z,25.50
2022-09-26T15:53:48.789Z,25.50
2022-09-26T15:56:22.907Z,25.50
2022-09-26T15:58:59.348Z,25.50
2022-09-26T16:01:29.306Z,25.50
2022-09-26T16:03:59.918Z,25.40
2022-09-26T16:06:38.166Z,25.40
2022-09-26T16:09:08.663Z,25.40
2022-09-26T16:11:48.416Z,25.30
2022-09-26T16:14:26.906Z,25.30
2022-09-26T16:17:00.648Z,25.30
2022-09-26T16:19:36.108Z,25.20
2022-09-26T16:22:23.456Z,25.20
2022-09-26T16:24:51.944Z,25.20
2022-09-26T16:27:27.313Z,25.10
2022-09-26T16:30:04.686Z,25.10
2022-09-26T16:32:33.468Z,25.10
2022-09-26T16:35:12.104Z,25.00
2022-09-26T16:37:39.855Z,25.00
2022-09-26T16:40:18.723Z,25.00
2022-09-26T16:42:47.549Z,25.00
2022-09-26T16:45:15.549Z,25.00
2022-09-26T16:47:44.756Z,25.00
2022-09-26T16:50:26.805Z,24.90
2022-09-26T16:52:55.390Z,25.00
2022-09-26T16:55:28.055Z,25.00
2022-09-26T16:57:57.349Z,25.00
2022-09-26T17:00:38.525Z,24.90
2022-09-26T17:03:18.830Z,25.00
2022-09-26T17:05:47.335Z,25.00
2022-09-26T17:08:15.257Z,25.00
2022-09-26T17:10:44.569Z,25.00
2022-09-26T17:13:14.883Z,25.00
2022-09-26T17:15:44.049Z,24.90
2022-09-26T17:18:13.395Z,24.90
2022-09-26T17:20:44.531Z,24.90
2022-09-26T17:23:35.264Z,24.80
2022-09-26T17:26:02.175Z,24.80
2022-09-26T17:28:48.392Z,24.80
2022-09-26T17:31:20.208Z,24.80
2022-09-26T17:33:50.038Z,24.80
2022-09-26T17:36:20.341Z,24.70
2022-09-26T17:38:48.260Z,24.70
2022-09-26T17:41:16.158Z,24.70
2022-09-26T17:43:43.938Z,24.70
2022-09-26T17:46:15.200Z,24.70
2022-09-26T17:48:44.138Z,24.80
2022-09-26T17:51:15.990Z,24.80
2022-09-26T17:53:50.501Z,24.80
2022-09-26T17:56:19.538Z,24.80
2022-09-26T17:58:47.900Z,24.80
2022-09-26T18:01:28.495Z,24.80
2022-09-26T18:03:58.725Z,24.70
2022-09-26T18:06:29.374Z,24.80
2022-09-26T18:08:58.630Z,24.80
2022-09-26T18:11:27.780Z,24.70
2022-09-26T18:13:55.796Z,24.80
2022-09-26T18:16:24.680Z,24.80
2022-09-26T18:18:52.594Z,24.80
2022-09-26T18:21:20.321Z,24.80
2022-09-26T18:23:52.766Z,24.80
2022-09-26T18:26:32.277Z,24.70
2022-09-26T18:29:07.865Z,24.70
2022-09-26T18:31:39.428Z,24.70
2022-09-26T18:34:11.769Z,24.80
2022-09-26T18:36:41.083Z,24.70
2022-09-26T18:39:08.793Z,24.70
2022-09-26T18:41:36.781Z,24.70
2022-09-26T18:44:04.954Z,24.70
2022-09-26T18:46:34.387Z,24.70
2022-09-26T18:49:06.563Z,24.60
2022-09-26T18:51:35.301Z,24.60
2022-09-26T18:54:07.260Z,24.60
2022-09-26T18:56:50.635Z,24.60
2022-09-26T18:59:18.341Z,24.60
2022-09-26T19:01:46.966Z,24.50
2022-09-26T19:04:20.251Z,24.50
2022-09-26T19:06:49.791Z,24.50
2022-09-26T19:09:19.099Z,24.50
2022-09-26T19:11:51.132Z,24.50
2022-09-26T19:14:20.577Z,24.50
2022-09-26T19:16:49.497Z,24.50
2022-09-26T19:19:17.674Z,24.50
2022-09-26T19:21:56.478Z,24.50
2022-09-26T19:24:32.049Z,24.50
2022-09-26T19:27:05.983Z,24.50
2022-09-26T19:29:46.278Z,24.50
2022-09-26T19:32:34.366Z,24.50
2022-09-26T19:35:06.649Z,24.60
2022-09-26T19:37:34.951Z,24.60
2022-09-26T19:40:04.333Z,24.60
2022-09-26T19:42:32.824Z,24.60
2022-09-26T19:45:00.527Z,24.60
2022-09-26T19:47:35.440Z,24.60
2022-09-26T19:50:03.292Z,24.60
2022-09-26T19:52:32.146Z,24.60
2022-09-26T19:54:59.774Z,24.60
2022-09-26T19:57:27.742Z,24.60
2022-09-26T19:59:55.413Z,24.60
2022-09-26T20:02:29.912Z,24.50
2022-09-26T20:04:57.666Z,24.50
2022-09-26T20:07:25.640Z,24.60
2022-09-26T20:09:54.135Z,24.50
2022-09-26T20:12:22.352Z,24.50
2022-09-26T20:14:50.406Z,24.60
2022-09-26T20:17:22.444Z,24.60
2022-09-26T20:19:54.021Z,24.50
2022-09-26T20:22:24.806Z,24.60
2022-09-26T20:24:54.042Z,24.60
2022-09-26T20:27:25.213Z,24.50
2022-09-26T20:30:05.640Z,24.60
2022-09-26T20:32:33.930Z,24.60
2022-09-26T20:35:02.528Z,24.60
2022-09-26T20:37:33.322Z,24.50
2022-09-26T20:40:01.618Z,24.50
2022-09-26T20:42:32.769Z,24.50
2022-09-26T20:45:00.489Z,24.50
2022-09-26T20:47:28.219Z,24.50
2022-09-26T20:49:57.183Z,24.50
2022-09-26T20:52:30.389Z,24.50
2022-09-26T20:54:58.116Z,24.50
2022-09-26T20:57:26.778Z,24.50
2022-09-26T20:59:54.454Z,24.50
2022-09-26T21:02:28.002Z,24.50
2022-09-26T21:04:56.370Z,24.50
2022-09-26T21:07:24.643Z,24.50
2022-09-26T21:09:52.604Z,24.50
2022-09-26T21:12:20.356Z,24.50
2022-09-26T21:14:48.120Z,24.50
2022-09-26T21:17:21.365Z,24.50
2022-09-26T21:19:50.046Z,24.50
2022-09-26T21:22:18.862Z,24.40
2022-09-26T21:24:49.517Z,24.50
2022-09-26T21:27:17.244Z,24.50
2022-09-26T21:29:44.990Z,24.50
2022-09-26T21:32:20.818Z,24.50
2022-09-26T21:35:07.027Z,24.50
2022-09-26T21:37:35.144Z,24.50
2022-09-26T21:40:03.082Z,24.50
2022-09-26T21:42:30.848Z,24.50
2022-09-26T21:45:01.377Z,24.50
2022-09-26T21:47:29.057Z,24.50
2022-09-26T21:49:57.788Z,24.50
2022-09-26T21:52:50.191Z,24.50
2022-09-26T21:55:21.315Z,24.50
2022-09-26T21:57:50.561Z,24.50
2022-09-26T22:00:19.088Z,24.50
2022-09-26T22:02:47.742Z,24.50
2022-09-26T22:05:17.091Z,24.50
2022-09-26T22:07:45.015Z,24.50
2022-09-26T22:10:13.605Z,24.50
2022-09-26T22:12:42.430Z,24.50
2022-09-26T22:15:10.593Z,24.50
2022-09-26T22:17:38.272Z,24.50
2022-09-26T22:20:06.169Z,24.50
2022-09-26T22:22:34.684Z,24.50
2022-09-26T22:25:05.404Z,24.50
2022-09-26T22:27:33.926Z,24.50
2022-09-26T22:30:01.637Z,24.50
2022-09-26T22:32:29.313Z,24.50
2022-09-26T22:34:57.938Z,24.60
2022-09-26T22:37:25.708Z,24.60
2022-09-26T22:39:53.896Z,24.60
2022-09-26T22:42:21.948Z,24.60
2022-09-26T22:44:49.612Z,24.60
2022-09-26T22:47:17.277Z,24.60
2022-09-26T22:49:44.913Z,24.60
2022-09-26T22:52:13.366Z,24.50
2022-09-26T22:54:41.038Z,24.50
2022-09-26T22:57:08.855Z,24.50
2022-09-26T22:59:36.640Z,24.50
2022-09-26T23:02:04.821Z,24.60
2022-09-26T23:04:46.801Z,24.50
2022-09-26T23:07:15.855Z,24.60
2022-09-26T23:09:44.588Z,24.50
2022-09-26T23:12:12.360Z,24.50
2022-09-26T23:14:40.010Z,24.50
2022-09-26T23:17:09.233Z,24.50
2022-09-26T23:19:37.691Z,24.50
2022-09-26T23:22:05.320Z,24.50
2022-09-26T23:24:33.019Z,24.50
2022-09-26T23:27:00.833Z,24.50
2022-09-26T23:29:28.533Z,24.50
2022-09-26T23:31:56.996Z,24.50
2022-09-26T23:34:24.994Z,24.50
2022-09-26T23:36:52.667Z,24.50
2022-09-26T23:39:20.348Z,24.50
2022-09-26T23:41:48.040Z,24.50
2022-09-26T23:44:15.706Z,24.50
2022-09-26T23:46:43.845Z,24.50
2022-09-26T23:49:11.558Z,24.50
2022-09-26T23:51:39.271Z,24.50
2022-09-26T23:54:07.193Z,24.50
2022-09-26T23:56:34.941Z,24.50
2022-09-26T23:59:02.675Z,24.60
